Time,TemperatureF,DewpointF,PressureIn,WindDirection,WindDirectionDegrees,WindSpeedMPH,WindSpeedGustMPH,Humidity,HourlyPrecipIn,Conditions,Clouds,dailyrainin,SoftwareType,DateUTC
2013-03-25 00:00:00,35.9,25.0,29.71,ESE,107,0.0,-999.0,65,-99.99,,,0.00,weatherlink.com 1.10,2013-03-25 04:00:00,
2013-03-25 00:15:00,35.6,25.0,29.70,ESE,107,0.0,-999.0,66,-99.99,,,0.00,weatherlink.com 1.10,2013-03-25 04:15:00,
2013-03-25 00:30:00,35.5,25.0,29.70,ESE,107,0.0,-999.0,67,-99.99,,,0.00,weatherlink.com 1.10,2013-03-25 04:30:00,
2013-03-25 00:45:00,35.5,25.0,29.70,ESE,107,1.0,-999.0,66,-99.99,,,0.00,weatherlink.com 1.10,2013-03-25 04:45:00,
2013-03-25 01:01:00,35.5,25.0,29.70,ESE,107,1.0,-999.0,67,-99.99,,,0.00,weatherlink.com 1.10,2013-03-25 05:01:00,
2013-03-25 01:16:00,35.4,25.0,29.70,ESE,107,1.0,-999.0,67,-99.99,,,0.00,weatherlink.com 1.10,2013-03-25 05:16:00,
2013-03-25 01:31:00,35.3,25.0,29.69,ESE,107,2.0,-999.0,67,-99.99,,,0.00,weatherlink.com 1.10,2013-03-25 05:31:00,
2013-03-25 01:47:00,35.1,25.0,29.68,ESE,107,1.0,-999.0,67,-99.99,,,0.00,weatherlink.com 1.10,2013-03-25 05:47:00,
2013-03-25 02:02:00,35.1,25.0,29.68,ESE,107,1.0,-999.0,68,-99.99,,,0.00,weatherlink.com 1.10,2013-03-25 06:02:00,
2013-03-25 02:17:00,34.9,26.0,29.67,ESE,107,2.0,-999.0,69,-99.99,,,0.00,weatherlink.com 1.10,2013-03-25 06:17:00,
2013-03-25 02:32:00,34.7,25.0,29.66,East,96,1.0,-999.0,69,-99.99,,,0.00,weatherlink.com 1.10,2013-03-25 06:32:00,
2013-03-25 02:48:00,34.7,25.0,29.66,East,96,5.0,-999.0,68,-99.99,,,0.00,weatherlink.com 1.10,2013-03-25 06:48:00,
2013-03-25 03:03:00,34.7,25.0,29.65,ESE,117,2.0,-999.0,67,-99.99,,,0.00,weatherlink.com 1.10,2013-03-25 07:03:00,
2013-03-25 03:18:00,34.4,25.0,29.64,East,84,3.0,-999.0,69,-99.99,,,0.00,weatherlink.com 1.10,2013-03-25 07:18:00,
2013-03-25 03:33:00,34.2,26.0,29.63,ESE,103,4.0,-999.0,71,-99.99,,,0.00,weatherlink.com 1.10,2013-03-25 07:33:00,
2013-03-25 03:49:00,34.3,26.0,29.62,East,80,3.0,-999.0,71,-99.99,,,0.00,weatherlink.com 1.10,2013-03-25 07:49:00,
2013-03-25 04:05:00,34.4,26.0,29.61,ENE,75,5.0,-999.0,70,-99.99,,,0.00,weatherlink.com 1.10,2013-03-25 08:05:00,
2013-03-25 04:20:00,34.7,25.0,29.61,East,100,5.0,-999.0,68,-99.99,,,0.00,weatherlink.com 1.10,2013-03-25 08:20:00,
2013-03-25 04:35:00,34.8,25.0,29.60,East,89,3.0,-999.0,68,-99.99,,,0.00,weatherlink.com 1.10,2013-03-25 08:35:00,
2013-03-25 04:51:00,34.9,25.0,29.60,ENE,68,5.0,-999.0,66,-99.99,,,0.00,weatherlink.com 1.10,2013-03-25 08:51:00,
2013-03-25 05:05:00,35.1,25.0,29.60,East,82,2.0,-999.0,66,-99.99,,,0.00,weatherlink.com 1.10,2013-03-25 09:05:00,
2013-03-25 05:20:00,35.2,24.0,29.60,East,94,4.0,-999.0,65,-99.99,,,0.00,weatherlink.com 1.10,2013-03-25 09:20:00,
2013-03-25 05:36:00,35.5,25.0,29.60,East,90,4.0,-999.0,65,-99.99,,,0.00,weatherlink.com 1.10,2013-03-25 09:36:00,
2013-03-25 05:53:00,35.6,25.0,29.59,East,89,6.0,-999.0,65,-99.99,,,0.00,weatherlink.com 1.10,2013-03-25 09:53:00,
2013-03-25 06:06:00,35.7,25.0,29.59,East,97,5.0,-999.0,65,-99.99,,,0.00,weatherlink.com 1.10,2013-03-25 10:06:00,
2013-03-25 06:37:00,35.8,25.0,29.59,ENE,65,6.0,-999.0,65,-99.99,,,0.00,weatherlink.com 1.10,2013-03-25 10:37:00,
2013-03-25 06:52:00,35.8,25.0,29.59,ESE,107,5.0,-999.0,65,-99.99,,,0.00,weatherlink.com 1.10,2013-03-25 10:52:00,
2013-03-25 07:07:00,35.9,25.0,29.61,ENE,75,5.0,-999.0,65,-99.99,,,0.00,weatherlink.com 1.10,2013-03-25 11:07:00,
2013-03-25 07:22:00,35.9,25.0,29.61,ESE,106,5.0,-999.0,65,-99.99,,,0.00,weatherlink.com 1.10,2013-03-25 11:22:00,
2013-03-25 07:38:00,35.9,25.0,29.61,NE,40,5.0,-999.0,65,-99.99,,,0.00,weatherlink.com 1.10,2013-03-25 11:38:00,
2013-03-25 07:53:00,35.9,25.0,29.61,East,94,4.0,-999.0,65,-99.99,,,0.00,weatherlink.com 1.10,2013-03-25 11:53:00,
2013-03-25 08:08:00,35.7,26.0,29.61,ENE,70,4.0,-999.0,67,-99.99,,,0.00,weatherlink.com 1.10,2013-03-25 12:08:00,
2013-03-25 08:23:00,34.8,27.0,29.61,East,86,7.0,-999.0,73,-99.99,,,0.00,weatherlink.com 1.10,2013-03-25 12:23:00,
2013-03-25 08:40:00,33.3,28.0,29.61,East,94,5.0,-999.0,81,-99.99,,,0.00,weatherlink.com 1.10,2013-03-25 12:40:00,
2013-03-25 08:55:00,32.3,28.0,29.60,East,90,11.0,-999.0,85,-99.99,,,0.00,weatherlink.com 1.10,2013-03-25 12:55:00,
2013-03-25 09:10:00,31.8,28.0,29.59,ESE,115,11.0,-999.0,87,-99.99,,,0.00,weatherlink.com 1.10,2013-03-25 13:10:00,
2013-03-25 09:25:00,31.7,29.0,29.59,ENE,70,2.0,-999.0,88,-99.99,,,0.00,weatherlink.com 1.10,2013-03-25 13:25:00,
2013-03-25 09:40:00,31.6,29.0,29.59,East,83,3.0,-999.0,89,-99.99,,,0.00,weatherlink.com 1.10,2013-03-25 13:40:00,
2013-03-25 09:55:00,31.5,29.0,29.59,ENE,65,4.0,-999.0,89,-99.99,,,0.00,weatherlink.com 1.10,2013-03-25 13:55:00,
2013-03-25 10:11:00,31.5,29.0,29.59,ESE,107,5.0,-999.0,89,-99.99,,,0.00,weatherlink.com 1.10,2013-03-25 14:11:00,
2013-03-25 10:41:00,31.6,29.0,29.59,East,98,4.0,-999.0,90,-99.99,,,0.00,weatherlink.com 1.10,2013-03-25 14:41:00,
2013-03-25 10:56:00,31.6,29.0,29.59,ESE,109,5.0,-999.0,90,-99.99,,,0.00,weatherlink.com 1.10,2013-03-25 14:56:00,
2013-03-25 11:13:00,31.8,29.0,29.58,ENE,63,2.0,-999.0,90,-99.99,,,0.00,weatherlink.com 1.10,2013-03-25 15:13:00,
2013-03-25 11:27:00,31.9,29.0,29.57,ENE,68,6.0,-999.0,90,-99.99,,,0.00,weatherlink.com 1.10,2013-03-25 15:27:00,
2013-03-25 11:42:00,32.0,30.0,29.56,ENE,58,4.0,-999.0,91,-99.99,,,0.00,weatherlink.com 1.10,2013-03-25 15:42:00,
2013-03-25 11:57:00,32.1,30.0,29.56,ENE,63,3.0,-999.0,91,-99.99,,,0.00,weatherlink.com 1.10,2013-03-25 15:57:00,
2013-03-25 12:13:00,32.1,30.0,29.55,ESE,109,2.0,-999.0,91,-99.99,,,0.00,weatherlink.com 1.10,2013-03-25 16:13:00,
2013-03-25 12:28:00,32.3,30.0,29.55,East,98,2.0,-999.0,91,-99.99,,,0.01,weatherlink.com 1.10,2013-03-25 16:28:00,
2013-03-25 12:44:00,32.3,30.0,29.54,ESE,106,2.0,-999.0,91,-99.99,,,0.02,weatherlink.com 1.10,2013-03-25 16:44:00,
2013-03-25 12:58:00,32.4,30.0,29.53,ESE,111,4.0,-999.0,90,-99.99,,,0.03,weatherlink.com 1.10,2013-03-25 16:58:00,
2013-03-25 13:15:00,32.6,30.0,29.52,ENE,60,3.0,-999.0,90,-99.99,,,0.04,weatherlink.com 1.10,2013-03-25 17:15:00,
2013-03-25 13:30:00,33.2,31.0,29.51,East,84,3.0,-999.0,91,-99.99,,,0.05,weatherlink.com 1.10,2013-03-25 17:30:00,
2013-03-25 13:45:00,33.4,31.0,29.51,ESE,103,4.0,-999.0,90,-99.99,,,0.07,weatherlink.com 1.10,2013-03-25 17:45:00,
2013-03-25 14:00:00,33.7,31.0,29.51,ESE,109,6.0,-999.0,90,-99.99,,,0.08,weatherlink.com 1.10,2013-03-25 18:00:00,
2013-03-25 14:15:00,33.9,31.0,29.50,ENE,65,8.0,-999.0,89,-99.99,,,0.09,weatherlink.com 1.10,2013-03-25 18:15:00,
2013-03-25 14:30:00,34.0,31.0,29.50,ESE,106,4.0,-999.0,89,-99.99,,,0.10,weatherlink.com 1.10,2013-03-25 18:30:00,
2013-03-25 14:45:00,34.6,32.0,29.50,ESE,119,6.0,-999.0,89,-99.99,,,0.11,weatherlink.com 1.10,2013-03-25 18:45:00,
2013-03-25 15:01:00,34.9,31.0,29.50,East,89,3.0,-999.0,86,-99.99,,,0.12,weatherlink.com 1.10,2013-03-25 19:01:00,
2013-03-25 15:16:00,34.9,31.0,29.50,East,98,4.0,-999.0,86,-99.99,,,0.13,weatherlink.com 1.10,2013-03-25 19:16:00,
2013-03-25 15:31:00,34.4,31.0,29.50,SE,138,6.0,-999.0,87,-99.99,,,0.13,weatherlink.com 1.10,2013-03-25 19:31:00,
2013-03-25 15:46:00,33.3,30.0,29.51,ESE,103,5.0,-999.0,89,-99.99,,,0.13,weatherlink.com 1.10,2013-03-25 19:46:00,
2013-03-25 16:02:00,33.2,31.0,29.51,ENE,76,2.0,-999.0,90,-99.99,,,0.14,weatherlink.com 1.10,2013-03-25 20:02:00,
2013-03-25 16:17:00,33.4,31.0,29.50,ESE,103,0.0,-999.0,90,-99.99,,,0.15,weatherlink.com 1.10,2013-03-25 20:17:00,
2013-03-25 16:36:00,33.8,31.0,29.50,ESE,103,0.0,-999.0,90,-99.99,,,0.15,weatherlink.com 1.10,2013-03-25 20:36:00,
2013-03-25 16:47:00,33.8,32.0,29.51,ESE,103,1.0,-999.0,91,-99.99,,,0.16,weatherlink.com 1.10,2013-03-25 20:47:00,
2013-03-25 17:03:00,33.8,32.0,29.51,SSW,204,2.0,-999.0,91,-99.99,,,0.16,weatherlink.com 1.10,2013-03-25 21:03:00,
2013-03-25 17:18:00,33.6,31.0,29.51,West,273,3.0,-999.0,91,-99.99,,,0.16,weatherlink.com 1.10,2013-03-25 21:18:00,
2013-03-25 17:33:00,33.3,31.0,29.51,WNW,286,1.0,-999.0,91,-99.99,,,0.17,weatherlink.com 1.10,2013-03-25 21:33:00,
2013-03-25 17:48:00,33.2,31.0,29.51,WNW,284,3.0,-999.0,92,-99.99,,,0.17,weatherlink.com 1.10,2013-03-25 21:48:00,
2013-03-25 18:05:00,33.4,31.0,29.52,NNW,346,2.0,-999.0,92,-99.99,,,0.17,weatherlink.com 1.10,2013-03-25 22:05:00,
2013-03-25 18:20:00,33.5,32.0,29.52,West,281,5.0,-999.0,92,-99.99,,,0.17,weatherlink.com 1.10,2013-03-25 22:20:00,
2013-03-25 18:35:00,33.5,32.0,29.53,West,280,2.0,-999.0,92,-99.99,,,0.17,weatherlink.com 1.10,2013-03-25 22:35:00,
2013-03-25 18:50:00,33.6,32.0,29.54,WNW,282,2.0,-999.0,93,-99.99,,,0.18,weatherlink.com 1.10,2013-03-25 22:50:00,
2013-03-25 19:05:00,33.8,32.0,29.55,West,275,0.0,-999.0,93,-99.99,,,0.18,weatherlink.com 1.10,2013-03-25 23:05:00,
2013-03-25 19:20:00,34.0,32.0,29.55,WNW,284,2.0,-999.0,93,-99.99,,,0.18,weatherlink.com 1.10,2013-03-25 23:20:00,
2013-03-25 19:35:00,34.1,32.0,29.56,WNW,284,4.0,-999.0,93,-99.99,,,0.18,weatherlink.com 1.10,2013-03-25 23:35:00,
2013-03-25 19:50:00,34.1,32.0,29.57,West,275,6.0,-999.0,93,-99.99,,,0.18,weatherlink.com 1.10,2013-03-25 23:50:00,
2013-03-25 20:06:00,34.2,32.0,29.57,WNW,290,2.0,-999.0,93,-99.99,,,0.18,weatherlink.com 1.10,2013-03-26 00:06:00,
2013-03-25 20:21:00,34.3,33.0,29.58,West,280,3.0,-999.0,93,-99.99,,,0.18,weatherlink.com 1.10,2013-03-26 00:21:00,
2013-03-25 20:37:00,34.4,33.0,29.59,WNW,286,6.0,-999.0,93,-99.99,,,0.18,weatherlink.com 1.10,2013-03-26 00:37:00,
2013-03-25 20:53:00,34.4,32.0,29.59,NW,311,3.0,-999.0,92,-99.99,,,0.19,weatherlink.com 1.10,2013-03-26 00:53:00,
2013-03-25 21:07:00,34.3,32.0,29.60,NW,309,4.0,-999.0,92,-99.99,,,0.19,weatherlink.com 1.10,2013-03-26 01:07:00,
2013-03-25 21:22:00,34.1,32.0,29.61,West,279,5.0,-999.0,91,-99.99,,,0.19,weatherlink.com 1.10,2013-03-26 01:22:00,
2013-03-25 21:37:00,33.8,32.0,29.61,NW,311,2.0,-999.0,92,-99.99,,,0.20,weatherlink.com 1.10,2013-03-26 01:37:00,
2013-03-25 21:52:00,33.6,32.0,29.62,North,355,0.0,-999.0,92,-99.99,,,0.20,weatherlink.com 1.10,2013-03-26 01:52:00,
2013-03-25 22:07:00,33.4,31.0,29.62,WNW,302,2.0,-999.0,92,-99.99,,,0.20,weatherlink.com 1.10,2013-03-26 02:07:00,
2013-03-25 22:23:00,33.3,31.0,29.63,WNW,290,5.0,-999.0,92,-99.99,,,0.20,weatherlink.com 1.10,2013-03-26 02:23:00,
2013-03-25 22:38:00,33.4,31.0,29.63,NW,313,7.0,-999.0,92,-99.99,,,0.21,weatherlink.com 1.10,2013-03-26 02:38:00,
2013-03-25 22:53:00,33.4,32.0,29.63,WNW,282,4.0,-999.0,93,-99.99,,,0.21,weatherlink.com 1.10,2013-03-26 02:53:00,
2013-03-25 23:10:00,33.5,32.0,29.63,NNW,346,8.0,-999.0,93,-99.99,,,0.21,weatherlink.com 1.10,2013-03-26 03:10:00,
2013-03-25 23:25:00,33.5,32.0,29.63,NNW,328,2.0,-999.0,93,-99.99,,,0.21,weatherlink.com 1.10,2013-03-26 03:25:00,
2013-03-25 23:40:00,33.5,32.0,29.64,NW,315,3.0,-999.0,93,-99.99,,,0.21,weatherlink.com 1.10,2013-03-26 03:40:00,
2013-03-25 23:55:00,33.5,32.0,29.64,West,273,1.0,-999.0,93,-99.99,,,0.21,weatherlink.com 1.10,2013-03-26 03:55:00,